Time;durP1;ratioP1;P1;durP2;ratioP2;P2;SDS_P1;SDS_P2;PMS_P1;PMS_P2;Temp;Humidity;BMP_temperature;BMP_pressure;BME280_temperature;BME280_humidity;BME280_pressure;Samples;Min_cycle;Max_cycle;Signal;HPM_P1;HPM_P2
2022/04/06 00:00:28;;;;;;;4.55;1.00;;;10.60;99.40;;;;;;4988194;28;20042;-60
2022/04/06 00:02:55;;;;;;;4.35;1.30;;;10.60;99.40;;;;;;4974824;28;20086;-55
2022/04/06 00:05:21;;;;;;;9.65;0.80;;;10.60;99.30;;;;;;4974109;28;20055;-54
2022/04/06 00:07:48;;;;;;;3.03;0.77;;;10.70;99.40;;;;;;4972589;28;20076;-53
2022/04/06 00:10:15;;;;;;;7.03;0.90;;;10.60;99.20;;;;;;4977080;28;20129;-56
2022/04/06 00:12:42;;;;;;;11.30;1.75;;;10.70;99.30;;;;;;4973287;28;20055;-51
2022/04/06 00:15:11;;;;;;;1.75;0.70;;;10.60;99.30;;;;;;4986661;28;20054;-57
2022/04/06 00:17:38;;;;;;;7.82;0.98;;;10.70;99.30;;;;;;4965577;28;20117;-57
2022/04/06 00:20:06;;;;;;;4.03;0.80;;;10.70;99.40;;;;;;4955023;28;20051;-56
2022/04/06 00:22:32;;;;;;;9.70;1.60;;;10.70;99.30;;;;;;4954045;28;20043;-56
2022/04/06 00:24:59;;;;;;;6.15;1.02;;;10.70;99.30;;;;;;4963327;28;20078;-56
2022/04/06 00:27:26;;;;;;;3.78;0.90;;;10.70;99.30;;;;;;4961951;28;20534;-57
2022/04/06 00:29:53;;;;;;;2.70;0.82;;;10.60;99.20;;;;;;4962466;28;20085;-55
2022/04/06 00:32:20;;;;;;;5.38;0.90;;;10.70;99.20;;;;;;4967261;28;20043;-56
2022/04/06 00:37:32;;;;;;;3.83;1.02;;;10.60;99.20;;;;;;4952814;28;20138;-56
2022/04/06 00:39:58;;;;;;;8.02;1.08;;;10.70;99.30;;;;;;4958282;28;20407;-57
2022/04/06 00:42:25;;;;;;;2.60;1.30;;;10.70;99.20;;;;;;4968768;28;20090;-58
2022/04/06 00:44:52;;;;;;;7.55;1.00;;;10.60;99.30;;;;;;4962428;28;20075;-54
2022/04/06 00:47:19;;;;;;;8.00;0.95;;;10.60;99.10;;;;;;4952011;28;20086;-58
2022/04/06 00:49:45;;;;;;;4.75;1.02;;;10.70;99.20;;;;;;4955886;28;20510;-57
2022/04/06 00:52:12;;;;;;;3.20;0.82;;;10.60;99.20;;;;;;4970485;28;20085;-56
2022/04/06 00:54:39;;;;;;;1.20;0.57;;;10.60;98.90;;;;;;4964564;28;20047;-55
2022/04/06 00:57:06;;;;;;;3.35;0.80;;;10.60;99.20;;;;;;4934788;29;20073;-54
2022/04/06 00:59:33;;;;;;;3.17;1.00;;;10.60;98.80;;;;;;4955316;28;20098;-56
2022/04/06 01:01:59;;;;;;;3.25;0.60;;;10.60;98.70;;;;;;4969023;28;20058;-55
2022/04/06 01:04:26;;;;;;;2.35;1.48;;;10.50;98.80;;;;;;4960400;28;20059;-56
2022/04/06 01:06:53;;;;;;;1.83;0.65;;;10.50;98.60;;;;;;4951147;28;20089;-56
2022/04/06 01:09:20;;;;;;;1.38;0.50;;;10.50;98.80;;;;;;4959273;28;20130;-55
2022/04/06 01:11:48;;;;;;;4.88;0.85;;;10.50;98.80;;;;;;4955403;28;20535;-53
2022/04/06 01:14:15;;;;;;;5.45;0.80;;;10.50;98.80;;;;;;4955134;28;20082;-56
2022/04/06 01:16:49;;;;;;;3.28;0.85;;;10.40;98.80;;;;;;4975797;28;20086;-57
2022/04/06 01:19:16;;;;;;;8.10;0.98;;;10.40;98.80;;;;;;4970373;28;20055;-57
2022/04/06 01:21:44;;;;;;;3.72;1.02;;;10.40;98.80;;;;;;4976885;28;20282;-56
2022/04/06 01:24:11;;;;;;;3.38;0.70;;;10.30;98.90;;;;;;4974177;28;20129;-56
2022/04/06 01:26:37;;;;;;;7.00;0.82;;;10.30;98.90;;;;;;4979743;28;20171;-55
2022/04/06 01:29:04;;;;;;;5.38;0.80;;;10.20;98.90;;;;;;4986999;28;20113;-56
2022/04/06 01:31:31;;;;;;;2.67;0.60;;;10.20;99.10;;;;;;4980710;28;20134;-57
2022/04/06 01:33:57;;;;;;;0.68;0.45;;;10.20;99.10;;;;;;4970319;28;20136;-55
2022/04/06 01:36:24;;;;;;;4.70;0.80;;;10.10;99.20;;;;;;4978406;28;20088;-52
2022/04/06 01:38:51;;;;;;;2.92;0.70;;;10.00;99.30;;;;;;4973833;28;20078;-56
2022/04/06 01:41:18;;;;;;;2.35;0.93;;;10.00;99.40;;;;;;4976340;28;20143;-57
2022/04/06 01:43:45;;;;;;;6.90;0.77;;;10.00;99.40;;;;;;4988885;28;20137;-57
2022/04/06 01:46:11;;;;;;;10.75;1.70;;;10.10;99.50;;;;;;4984287;28;20046;-56
2022/04/06 01:52:12;;;;;;;1.73;0.85;;;10.00;99.40;;;;;;4969589;28;20051;-56
2022/04/06 01:54:10;;;;;;;5.32;0.93;;;10.00;99.40;;;;;;4989249;28;20074;-56
2022/04/06 01:56:37;;;;;;;7.35;1.02;;;10.00;99.50;;;;;;4976102;28;20565;-56
2022/04/06 01:59:03;;;;;;;6.20;0.90;;;10.00;99.60;;;;;;4988837;28;20085;-55
2022/04/06 02:01:30;;;;;;;6.13;1.65;;;10.00;99.70;;;;;;4984700;28;20493;-55
2022/04/06 02:03:59;;;;;;;1.88;0.73;;;9.90;99.80;;;;;;4970770;28;20111;-57
2022/04/06 02:06:27;;;;;;;9.45;1.08;;;9.90;99.90;;;;;;4973258;28;20526;-55
2022/04/06 02:08:53;;;;;;;4.28;0.85;;;9.90;99.90;;;;;;4983917;28;20150;-56
2022/04/06 02:11:20;;;;;;;2.47;0.88;;;9.90;99.90;;;;;;4635186;28;9999836;-57
2022/04/06 02:13:47;;;;;;;7.15;1.02;;;9.90;99.90;;;;;;4949144;28;20090;-57
2022/04/06 02:16:14;;;;;;;2.42;0.85;;;9.80;99.90;;;;;;4991179;28;20141;-56
2022/04/06 02:18:41;;;;;;;4.47;0.60;;;9.80;99.90;;;;;;4976689;28;20138;-57
2022/04/06 02:21:08;;;;;;;1.73;0.75;;;9.80;99.90;;;;;;4977962;28;20138;-55
2022/04/06 02:23:34;;;;;;;4.28;0.95;;;9.80;99.90;;;;;;4990240;28;20057;-57
2022/04/06 02:26:01;;;;;;;4.10;1.13;;;9.80;99.90;;;;;;4971652;28;20134;-58
2022/04/06 02:28:28;;;;;;;4.88;0.80;;;9.80;99.90;;;;;;4977371;28;20138;-56
2022/04/06 02:30:54;;;;;;;4.32;0.77;;;9.80;99.90;;;;;;4987799;28;20297;-56
2022/04/06 02:33:21;;;;;;;4.55;0.80;;;9.70;99.90;;;;;;4979790;28;20097;-55
2022/04/06 02:35:48;;;;;;;3.40;1.05;;;9.80;99.90;;;;;;4969172;28;20095;-56
2022/04/06 02:38:15;;;;;;;7.50;1.08;;;9.70;99.90;;;;;;4974012;28;20137;-56
2022/04/06 02:40:42;;;;;;;4.47;1.17;;;9.70;99.90;;;;;;4968856;28;20086;-56
2022/04/06 02:43:08;;;;;;;3.58;0.75;;;9.70;99.90;;;;;;4973532;28;20141;-55
2022/04/06 02:45:35;;;;;;;2.35;0.90;;;9.60;99.90;;;;;;4988195;28;20061;-52
2022/04/06 02:48:02;;;;;;;5.70;1.30;;;9.60;99.90;;;;;;4984078;28;20042;-55
2022/04/06 02:50:29;;;;;;;10.15;0.90;;;9.60;99.90;;;;;;4972259;28;20078;-55
2022/04/06 02:52:55;;;;;;;8.65;1.13;;;9.60;99.90;;;;;;4972232;28;20483;-55
2022/04/06 02:55:22;;;;;;;4.57;1.00;;;9.60;99.90;;;;;;4984753;28;20151;-56
2022/04/06 02:57:49;;;;;;;4.80;1.02;;;9.60;99.90;;;;;;4983605;28;20121;-54
2022/04/06 03:00:18;;;;;;;5.85;0.93;;;9.70;99.90;;;;;;4974424;28;20051;-54
2022/04/06 03:02:46;;;;;;;5.65;1.00;;;9.70;99.90;;;;;;4982128;28;20097;-56
2022/04/06 03:05:13;;;;;;;6.07;1.08;;;9.70;99.90;;;;;;4980339;28;20046;-54
2022/04/06 03:07:40;;;;;;;6.03;1.13;;;9.70;99.90;;;;;;4976479;28;20480;-55
2022/04/06 03:10:07;;;;;;;8.85;1.60;;;9.70;99.90;;;;;;4982477;28;20153;-56
2022/04/06 03:12:33;;;;;;;7.28;1.88;;;9.60;99.90;;;;;;4989051;28;20121;-55
2022/04/06 03:15:00;;;;;;;9.48;1.52;;;9.60;99.90;;;;;;4983285;28;20050;-53
2022/04/06 03:17:27;;;;;;;5.20;1.00;;;9.70;99.90;;;;;;4972850;28;20089;-56
2022/04/06 03:19:54;;;;;;;8.32;1.63;;;9.70;99.90;;;;;;4977717;28;20153;-55
2022/04/06 03:22:21;;;;;;;7.95;1.27;;;9.70;99.90;;;;;;4972301;28;20122;-56
2022/04/06 03:24:48;;;;;;;6.07;1.70;;;9.70;99.90;;;;;;4979476;28;20078;-56
2022/04/06 03:27:15;;;;;;;6.30;0.98;;;9.70;99.90;;;;;;4991649;28;20081;-56
2022/04/06 03:29:41;;;;;;;10.65;1.20;;;9.60;99.90;;;;;;4991886;28;20050;-56
2022/04/06 03:32:09;;;;;;;6.13;1.70;;;9.70;99.90;;;;;;4971961;28;20062;-56
2022/04/06 03:34:36;;;;;;;6.35;1.10;;;9.60;99.90;;;;;;4976078;28;20055;-53
2022/04/06 03:37:03;;;;;;;6.97;0.90;;;9.60;99.90;;;;;;4990611;28;20125;-56
2022/04/06 03:39:30;;;;;;;9.27;1.00;;;9.60;99.90;;;;;;4974697;28;20134;-54
2022/04/06 03:41:57;;;;;;;6.30;1.38;;;9.60;99.90;;;;;;4988063;28;20133;-54
2022/04/06 03:44:23;;;;;;;5.22;1.17;;;9.60;99.90;;;;;;4987072;28;20054;-54
2022/04/06 03:46:50;;;;;;;6.70;1.80;;;9.70;99.90;;;;;;4977654;28;20078;-55
2022/04/06 03:49:17;;;;;;;10.68;3.53;;;9.70;99.90;;;;;;4975471;28;20073;-55
2022/04/06 03:51:44;;;;;;;11.30;1.45;;;9.70;99.90;;;;;;4987315;28;20074;-55
2022/04/06 03:54:10;;;;;;;8.95;1.25;;;9.70;99.90;;;;;;4987310;28;20129;-52
2022/04/06 03:56:38;;;;;;;8.23;1.58;;;9.80;99.90;;;;;;4981546;28;20053;-52
2022/04/06 03:59:05;;;;;;;7.75;1.38;;;9.80;99.90;;;;;;4974234;28;20609;-56
2022/04/06 04:01:32;;;;;;;5.18;1.08;;;9.90;99.90;;;;;;4980016;28;20086;-56
2022/04/06 04:03:58;;;;;;;12.07;2.50;;;9.90;99.90;;;;;;4986659;28;20568;-54
2022/04/06 04:06:25;;;;;;;11.95;1.58;;;9.90;99.90;;;;;;4988864;28;20152;-56
2022/04/06 04:08:52;;;;;;;11.07;1.65;;;9.90;99.90;;;;;;4986299;28;20081;-52
2022/04/06 04:11:19;;;;;;;13.15;1.50;;;10.00;99.90;;;;;;4978115;28;20122;-53
2022/04/06 04:13:45;;;;;;;6.30;1.80;;;10.00;99.90;;;;;;4991149;28;20079;-54
2022/04/06 04:16:12;;;;;;;16.30;1.63;;;10.00;99.90;;;;;;4984530;28;20050;-54
2022/04/06 04:18:39;;;;;;;11.65;1.63;;;10.10;99.90;;;;;;4971609;28;20049;-56
2022/04/06 04:23:51;;;;;;;12.90;1.75;;;10.10;99.90;;;;;;4971672;28;20078;-55
2022/04/06 04:26:18;;;;;;;15.07;2.58;;;10.10;99.90;;;;;;4975061;28;20050;-53
2022/04/06 04:28:45;;;;;;;19.38;2.13;;;10.20;99.90;;;;;;4983795;28;20042;-54
2022/04/06 04:31:12;;;;;;;10.70;2.13;;;10.20;99.90;;;;;;4975071;28;20077;-55
2022/04/06 04:33:38;;;;;;;14.07;1.92;;;10.20;99.90;;;;;;4987614;28;20064;-54
2022/04/06 04:36:05;;;;;;;7.72;1.63;;;10.20;99.90;;;;;;4986560;28;20052;-58
2022/04/06 04:38:32;;;;;;;9.15;1.77;;;10.20;99.90;;;;;;4987516;28;20081;-56
2022/04/06 04:40:59;;;;;;;6.53;1.67;;;10.20;99.90;;;;;;4986358;28;20143;-56
2022/04/06 04:43:26;;;;;;;20.50;1.75;;;10.20;99.90;;;;;;4978625;28;20055;-58
2022/04/06 04:45:53;;;;;;;6.38;1.73;;;10.20;99.90;;;;;;4974966;28;20129;-57
2022/04/06 04:48:20;;;;;;;9.07;2.55;;;10.20;99.90;;;;;;4980693;28;20064;-56
2022/04/06 04:50:46;;;;;;;9.70;1.60;;;10.20;99.90;;;;;;4985014;28;20133;-55
2022/04/06 04:53:13;;;;;;;5.32;1.20;;;10.30;99.90;;;;;;4989162;28;20125;-55
2022/04/06 04:55:41;;;;;;;7.55;1.40;;;10.30;99.90;;;;;;4989930;28;20062;-54
2022/04/06 04:58:08;;;;;;;10.32;2.28;;;10.30;99.90;;;;;;4968385;28;20085;-53
2022/04/06 05:00:35;;;;;;;11.85;1.90;;;10.30;99.90;;;;;;4970844;28;20122;-56
2022/04/06 05:03:02;;;;;;;14.40;3.40;;;10.40;99.90;;;;;;4977344;28;20074;-56
2022/04/06 05:05:29;;;;;;;9.02;3.03;;;10.40;99.90;;;;;;4978764;28;20134;-53
2022/04/06 05:07:58;;;;;;;12.93;2.00;;;10.40;99.90;;;;;;4975065;28;20043;-56
2022/04/06 05:10:26;;;;;;;9.13;3.58;;;10.40;99.90;;;;;;4990258;28;20101;-59
2022/04/06 05:12:54;;;;;;;17.02;2.80;;;10.50;99.90;;;;;;4985597;28;20046;-58
2022/04/06 05:15:21;;;;;;;11.30;1.85;;;10.50;99.90;;;;;;4971318;28;20134;-57
2022/04/06 05:17:48;;;;;;;7.43;2.13;;;10.40;99.90;;;;;;4966362;28;20047;-58
2022/04/06 05:20:14;;;;;;;8.63;1.95;;;10.50;99.90;;;;;;4973712;28;20082;-56
2022/04/06 05:22:41;;;;;;;17.83;2.30;;;10.40;99.90;;;;;;4964305;28;20054;-55
2022/04/06 05:25:08;;;;;;;11.32;3.45;;;10.50;99.90;;;;;;4975769;28;20059;-56
2022/04/06 05:27:45;;;;;;;7.30;1.38;;;10.50;99.90;;;;;;4974138;28;20243;-57
2022/04/06 05:30:13;;;;;;;7.78;1.42;;;10.50;99.90;;;;;;4985783;28;20065;-55
2022/04/06 05:32:41;;;;;;;8.68;1.80;;;10.50;99.90;;;;;;4985637;28;20498;-58
2022/04/06 05:35:09;;;;;;;5.13;1.40;;;10.50;99.90;;;;;;4978392;28;20058;-55
2022/04/06 05:37:37;;;;;;;8.45;2.25;;;10.50;99.90;;;;;;4971982;28;20085;-58
2022/04/06 05:40:05;;;;;;;9.52;2.92;;;10.50;99.90;;;;;;4982467;28;20062;-53
2022/04/06 05:42:37;;;;;;;9.88;1.77;;;10.60;99.90;;;;;;4986301;28;20143;-52
2022/04/06 05:45:04;;;;;;;11.77;1.85;;;10.60;99.90;;;;;;4972044;28;20050;-55
2022/04/06 05:47:31;;;;;;;14.30;2.03;;;10.60;99.90;;;;;;4988188;28;20102;-55
2022/04/06 05:49:58;;;;;;;14.68;2.03;;;10.60;99.90;;;;;;4980936;28;20130;-54
2022/04/06 05:52:25;;;;;;;13.63;1.48;;;10.60;99.90;;;;;;4969940;28;20065;-56
2022/04/06 05:54:51;;;;;;;15.52;3.60;;;10.70;99.90;;;;;;4981979;28;20054;-55
2022/04/06 05:57:19;;;;;;;12.45;2.05;;;10.70;99.90;;;;;;4969857;28;20597;-56
2022/04/06 05:59:46;;;;;;;15.32;2.20;;;10.70;99.90;;;;;;4967965;28;20046;-55
2022/04/06 06:02:13;;;;;;;14.88;2.05;;;10.70;99.90;;;;;;4969732;28;20074;-56
2022/04/06 06:04:40;;;;;;;14.25;2.03;;;10.80;99.90;;;;;;4963398;28;20093;-57
2022/04/06 06:07:07;;;;;;;13.80;1.77;;;10.80;99.90;;;;;;4969750;28;20078;-56
2022/04/06 06:09:35;;;;;;;23.85;2.35;;;10.80;99.90;;;;;;4973355;28;20058;-57
2022/04/06 06:12:02;;;;;;;9.60;3.08;;;10.80;99.90;;;;;;4986596;28;20055;-55
2022/04/06 06:14:29;;;;;;;17.08;2.20;;;10.80;99.90;;;;;;4984830;28;20140;-56
2022/04/06 06:16:58;;;;;;;17.75;2.33;;;10.80;99.90;;;;;;4973397;28;20051;-57
2022/04/06 06:19:26;;;;;;;14.90;1.63;;;10.90;99.90;;;;;;4973087;28;20047;-57
2022/04/06 06:21:53;;;;;;;5.68;1.50;;;10.80;99.90;;;;;;4982521;28;20142;-52
2022/04/06 06:24:21;;;;;;;9.60;1.58;;;10.90;99.90;;;;;;4980451;28;20134;-57
2022/04/06 06:26:48;;;;;;;8.82;1.80;;;10.90;99.90;;;;;;4978087;28;20407;-58
2022/04/06 06:29:15;;;;;;;7.85;1.58;;;11.00;99.90;;;;;;4963830;28;20047;-57
2022/04/06 06:31:41;;;;;;;4.43;1.50;;;11.00;99.90;;;;;;4978045;28;20540;-55
2022/04/06 06:34:08;;;;;;;16.45;1.73;;;11.00;99.90;;;;;;4986186;28;20042;-57
2022/04/06 06:36:35;;;;;;;5.40;1.35;;;11.00;99.90;;;;;;4979704;28;20082;-57
2022/04/06 06:39:02;;;;;;;6.10;1.90;;;11.10;99.90;;;;;;4981477;28;20134;-56
2022/04/06 06:41:29;;;;;;;6.70;1.63;;;11.10;99.90;;;;;;4980301;28;20078;-56
2022/04/06 06:43:56;;;;;;;8.90;1.50;;;11.10;99.90;;;;;;4968896;28;20151;-57
2022/04/06 06:46:23;;;;;;;10.25;1.40;;;11.20;99.90;;;;;;4974543;28;20141;-56
2022/04/06 06:48:51;;;;;;;8.70;2.10;;;11.20;99.90;;;;;;4986949;28;20046;-56
2022/04/06 06:51:18;;;;;;;7.47;1.20;;;11.30;99.90;;;;;;4984908;28;20141;-55
2022/04/06 06:53:44;;;;;;;8.88;1.58;;;11.40;99.90;;;;;;4968577;28;20094;-57
2022/04/06 06:56:12;;;;;;;9.07;1.50;;;11.40;99.90;;;;;;4972514;28;20146;-56
2022/04/06 06:58:39;;;;;;;3.45;1.13;;;11.40;99.90;;;;;;4960356;28;20055;-57
2022/04/06 07:01:06;;;;;;;2.25;0.88;;;11.50;99.90;;;;;;4975962;28;20051;-55
2022/04/06 07:03:33;;;;;;;6.90;1.75;;;11.50;99.90;;;;;;4978110;28;20053;-56
2022/04/06 07:06:00;;;;;;;8.93;1.58;;;11.40;99.90;;;;;;4977719;28;20051;-56
2022/04/06 07:08:27;;;;;;;6.30;1.42;;;11.40;99.90;;;;;;4981824;28;20164;-56
2022/04/06 07:10:53;;;;;;;8.65;1.75;;;11.40;99.90;;;;;;4968313;28;20457;-57
2022/04/06 07:13:20;;;;;;;6.68;1.92;;;11.40;99.90;;;;;;4978960;28;20142;-57
2022/04/06 07:15:47;;;;;;;9.63;2.42;;;11.40;99.90;;;;;;4983036;28;20054;-56
2022/04/06 07:18:17;;;;;;;6.95;1.85;;;11.30;99.90;;;;;;4979245;28;20574;-56
2022/04/06 07:20:44;;;;;;;10.38;1.65;;;11.30;99.90;;;;;;4970539;28;20734;-57
2022/04/06 07:23:11;;;;;;;7.50;1.65;;;11.30;99.90;;;;;;4970604;28;20175;-57
2022/04/06 07:25:39;;;;;;;11.43;1.33;;;11.20;99.90;;;;;;4987441;28;20413;-55
2022/04/06 07:28:07;;;;;;;5.90;1.60;;;11.30;99.90;;;;;;4983242;28;20057;-61
2022/04/06 07:30:34;;;;;;;8.23;1.77;;;11.30;99.90;;;;;;4988015;28;20486;-58
2022/04/06 07:33:01;;;;;;;15.68;1.48;;;11.30;99.90;;;;;;4980662;28;20141;-57
2022/04/06 07:35:28;;;;;;;6.72;1.30;;;11.30;99.90;;;;;;4968624;28;20466;-56
2022/04/06 07:37:54;;;;;;;11.93;1.88;;;11.30;99.90;;;;;;4967537;28;20078;-58
2022/04/06 07:40:22;;;;;;;4.95;1.77;;;11.20;99.90;;;;;;4987528;28;20042;-58
2022/04/06 07:42:50;;;;;;;6.32;1.25;;;11.30;99.90;;;;;;4983241;28;20097;-58
2022/04/06 07:45:17;;;;;;;9.45;1.38;;;11.30;99.90;;;;;;4969276;28;20145;-58
2022/04/06 07:47:45;;;;;;;6.53;1.40;;;11.30;99.90;;;;;;4971937;28;20054;-56
2022/04/06 07:50:13;;;;;;;9.75;1.92;;;11.20;99.90;;;;;;4982865;28;20078;-58
2022/04/06 07:52:40;;;;;;;7.57;1.45;;;11.30;99.90;;;;;;4977957;28;20571;-58
2022/04/06 07:55:07;;;;;;;6.93;1.70;;;11.30;99.90;;;;;;4976816;28;20148;-55
2022/04/06 07:57:34;;;;;;;7.57;1.33;;;11.30;99.90;;;;;;4975195;28;20054;-60
2022/04/06 08:00:06;;;;;;;13.80;1.88;;;11.30;99.90;;;;;;4978751;28;20137;-58
2022/04/06 08:02:33;;;;;;;8.88;1.58;;;11.30;99.90;;;;;;4975008;28;20081;-56
2022/04/06 08:05:00;;;;;;;8.82;1.08;;;11.30;99.90;;;;;;4976978;28;20042;-58
2022/04/06 08:07:27;;;;;;;8.27;1.50;;;11.30;99.90;;;;;;4609428;28;10000130;-57
2022/04/06 08:09:53;;;;;;;2.90;1.40;;;11.40;99.90;;;;;;4979115;28;20137;-58
2022/04/06 08:12:20;;;;;;;4.30;1.73;;;11.40;99.90;;;;;;4969233;28;20062;-56
2022/04/06 08:14:48;;;;;;;3.45;1.08;;;11.40;99.90;;;;;;4977221;28;20082;-58
2022/04/06 08:17:15;;;;;;;15.18;2.85;;;11.40;99.90;;;;;;4987606;28;20054;-59
2022/04/06 08:19:42;;;;;;;4.20;1.20;;;11.30;99.90;;;;;;4971804;28;20538;-58
2022/04/06 08:22:09;;;;;;;3.92;1.05;;;11.30;99.90;;;;;;4987463;28;20085;-59
2022/04/06 08:24:36;;;;;;;4.70;1.48;;;11.30;99.90;;;;;;4988581;28;20058;-62
2022/04/06 08:27:03;;;;;;;5.85;1.30;;;11.20;99.90;;;;;;4966689;28;20581;-59
2022/04/06 08:29:29;;;;;;;4.43;1.02;;;11.20;99.90;;;;;;4970145;28;20573;-57
2022/04/06 08:31:56;;;;;;;8.75;1.35;;;11.10;99.90;;;;;;4986666;28;20483;-59
2022/04/06 08:34:23;;;;;;;6.07;1.30;;;11.10;99.90;;;;;;4983189;28;20137;-59
2022/04/06 08:36:50;;;;;;;3.10;1.60;;;11.00;99.90;;;;;;4969840;28;20078;-59
2022/04/06 08:39:16;;;;;;;4.70;1.40;;;11.00;99.90;;;;;;4977523;28;20133;-59
2022/04/06 08:41:48;;;;;;;5.00;1.35;;;11.00;99.90;;;;;;4971641;28;20062;-59
2022/04/06 08:44:16;;;;;;;7.68;1.25;;;10.90;99.90;;;;;;4960082;28;20046;-60
2022/04/06 08:46:43;;;;;;;5.18;1.30;;;10.90;99.90;;;;;;4980666;28;20081;-58
2022/04/06 08:49:10;;;;;;;5.68;2.22;;;10.90;99.90;;;;;;4949655;28;20469;-59
2022/04/06 08:51:38;;;;;;;3.30;1.08;;;10.90;99.90;;;;;;4963407;28;20073;-59
2022/04/06 08:54:05;;;;;;;5.90;1.40;;;10.90;99.90;;;;;;4981107;28;20051;-58
2022/04/06 08:56:32;;;;;;;5.78;0.93;;;10.90;99.90;;;;;;4967823;28;20421;-56
2022/04/06 08:59:00;;;;;;;2.30;0.90;;;11.00;99.90;;;;;;4983579;28;20054;-58
2022/04/06 09:01:31;;;;;;;3.40;0.93;;;11.00;99.90;;;;;;4979417;28;20133;-58
2022/04/06 09:04:01;;;;;;;4.63;0.80;;;11.10;99.90;;;;;;4970462;28;20109;-56
2022/04/06 09:06:48;;;;;;;6.13;1.38;;;11.30;99.90;;;;;;4972994;28;20748;-57
2022/04/06 09:09:24;;;;;;;4.10;0.88;;;11.40;99.90;;;;;;4985484;28;20055;-58
2022/04/06 09:11:51;;;;;;;2.53;0.98;;;11.40;99.90;;;;;;4978518;28;20133;-59
2022/04/06 09:14:29;;;;;;;8.60;1.23;;;11.50;99.90;;;;;;4968139;28;20104;-59
2022/04/06 09:17:03;;;;;;;4.63;1.27;;;11.70;99.90;;;;;;4971813;28;20433;-59
2022/04/06 09:19:30;;;;;;;4.68;1.00;;;11.80;99.90;;;;;;4967160;28;20128;-56
2022/04/06 09:21:57;;;;;;;4.80;0.75;;;11.90;99.90;;;;;;4965826;28;20109;-60
2022/04/06 09:24:25;;;;;;;4.22;1.08;;;12.00;99.90;;;;;;4986482;28;20061;-60
2022/04/06 09:26:59;;;;;;;5.45;1.00;;;12.10;99.90;;;;;;4978870;28;20077;-59
2022/04/06 09:29:26;;;;;;;9.38;1.10;;;12.10;99.90;;;;;;4966698;28;20542;-59
2022/04/06 09:31:53;;;;;;;2.25;0.90;;;12.10;99.90;;;;;;4973195;28;20225;-58
2022/04/06 09:34:23;;;;;;;6.70;0.90;;;12.20;99.90;;;;;;4986931;28;20050;-59
2022/04/06 09:36:56;;;;;;;5.28;1.05;;;12.20;99.90;;;;;;4981998;28;20058;-59
2022/04/06 09:39:42;;;;;;;3.13;1.33;;;12.30;99.90;;;;;;4981187;28;20116;-59
2022/04/06 09:42:10;;;;;;;5.97;1.00;;;12.30;99.90;;;;;;4980361;28;20090;-57
2022/04/06 09:47:39;;;;;;;2.42;1.30;;;12.50;99.90;;;;;;4978641;28;20051;-59
2022/04/06 09:50:20;;;;;;;5.28;0.85;;;12.50;99.90;;;;;;4969213;28;20109;-59
2022/04/06 09:52:52;;;;;;;3.47;0.80;;;12.50;99.90;;;;;;4973941;28;20054;-58
2022/04/06 09:55:20;;;;;;;6.03;1.08;;;12.50;99.90;;;;;;4984183;28;20505;-59
2022/04/06 09:57:52;;;;;;;6.65;1.13;;;12.50;99.90;;;;;;4986125;28;20042;-59
2022/04/06 10:00:20;;;;;;;4.35;1.80;;;12.60;99.90;;;;;;4949386;28;20051;-58
2022/04/06 10:03:05;;;;;;;9.88;2.67;;;12.50;99.90;;;;;;4978752;28;20414;-58
2022/04/06 10:05:33;;;;;;;3.47;1.08;;;12.60;99.90;;;;;;4974174;28;20050;-59
2022/04/06 10:08:01;;;;;;;9.05;1.60;;;12.70;99.90;;;;;;4981251;28;20050;-58
2022/04/06 10:10:28;;;;;;;8.45;1.85;;;12.70;99.90;;;;;;4985837;28;20081;-58
2022/04/06 10:12:56;;;;;;;5.20;1.40;;;12.70;99.90;;;;;;4967266;28;20133;-58
2022/04/06 10:15:42;;;;;;;4.45;1.48;;;12.80;99.90;;;;;;4951598;28;20093;-59
2022/04/06 10:18:09;;;;;;;10.85;1.98;;;13.00;99.90;;;;;;4969807;28;20054;-58
2022/04/06 10:20:37;;;;;;;7.63;1.15;;;13.10;99.90;;;;;;4985836;28;20085;-58
2022/04/06 10:23:36;;;;;;;6.35;1.98;;;13.00;99.90;;;;;;4966562;28;20742;-60
2022/04/06 10:26:53;;;;;;;4.78;1.02;;;13.00;99.90;;;;;;4950089;28;20399;-57
2022/04/06 10:29:20;;;;;;;3.33;1.10;;;13.10;99.90;;;;;;4976530;28;20513;-57
2022/04/06 10:31:48;;;;;;;9.35;1.48;;;13.20;99.90;;;;;;4966347;28;20078;-59
2022/04/06 10:34:27;;;;;;;11.80;1.52;;;13.20;99.90;;;;;;4967650;28;20042;-59
2022/04/06 10:37:12;;;;;;;3.72;1.02;;;13.20;99.90;;;;;;4967991;28;20085;-58
2022/04/06 10:39:57;;;;;;;5.90;1.23;;;13.20;99.90;;;;;;4981997;28;20050;-58
2022/04/06 10:42:27;;;;;;;6.63;1.23;;;13.20;99.90;;;;;;4984036;28;20089;-59
2022/04/06 10:44:55;;;;;;;15.43;3.80;;;13.20;99.90;;;;;;4974464;28;20140;-58
2022/04/06 10:47:22;;;;;;;10.32;2.00;;;13.20;99.90;;;;;;4984637;28;20061;-58
2022/04/06 10:50:19;;;;;;;11.25;1.77;;;13.20;99.90;;;;;;4977014;28;20087;-59
2022/04/06 10:52:47;;;;;;;5.90;1.65;;;12.90;99.90;;;;;;4975837;28;20066;-58
2022/04/06 10:55:21;;;;;;;6.53;1.92;;;12.90;99.90;;;;;;4994853;28;20140;-59
2022/04/06 10:58:00;;;;;;;6.70;1.73;;;12.80;99.90;;;;;;4984220;28;20165;-62
2022/04/06 11:00:27;;;;;;;7.75;1.67;;;12.80;99.90;;;;;;4976704;28;20062;-58
2022/04/06 11:02:54;;;;;;;9.75;1.70;;;12.90;99.90;;;;;;4966277;28;20089;-59
2022/04/06 11:05:40;;;;;;;7.97;1.52;;;12.90;99.90;;;;;;4958265;28;20054;-58
2022/04/06 11:11:30;;;;;;;7.80;1.27;;;13.00;99.90;;;;;;4994987;28;20092;-59
2022/04/06 11:13:56;;;;;;;5.20;1.58;;;13.10;99.90;;;;;;4981157;28;20105;-60
2022/04/06 11:16:46;;;;;;;6.80;1.35;;;13.20;99.90;;;;;;4967790;28;20145;-59
2022/04/06 11:19:13;;;;;;;4.22;1.05;;;13.30;99.90;;;;;;4980634;28;20062;-59
2022/04/06 11:21:53;;;;;;;6.60;1.25;;;13.30;99.90;;;;;;4975639;28;20865;-57
2022/04/06 11:24:21;;;;;;;4.68;1.20;;;13.30;99.90;;;;;;4981504;28;20086;-59
2022/04/06 11:26:48;;;;;;;6.00;1.17;;;13.50;99.90;;;;;;4977964;28;20222;-58
2022/04/06 11:29:15;;;;;;;5.95;1.02;;;13.40;99.90;;;;;;4973391;28;20088;-59
2022/04/06 11:32:00;;;;;;;2.97;1.27;;;13.40;99.90;;;;;;4978003;28;20061;-66
2022/04/06 11:34:33;;;;;;;4.45;1.05;;;13.60;99.90;;;;;;4984241;28;20077;-58
2022/04/06 11:37:01;;;;;;;5.95;1.27;;;13.50;99.90;;;;;;4979124;28;20085;-58
2022/04/06 11:39:28;;;;;;;5.55;1.10;;;13.60;99.90;;;;;;4963338;28;20046;-59
2022/04/06 11:41:55;;;;;;;5.88;2.25;;;13.70;99.90;;;;;;4980636;28;20055;-59
2022/04/06 11:44:24;;;;;;;2.10;0.85;;;13.70;99.90;;;;;;4970357;28;20058;-59
2022/04/06 11:46:52;;;;;;;6.68;1.20;;;13.50;99.90;;;;;;4978722;28;20604;-58
2022/04/06 11:49:26;;;;;;;4.50;1.15;;;13.60;99.90;;;;;;4979658;28;20046;-62
2022/04/06 11:51:53;;;;;;;4.10;1.08;;;13.70;99.90;;;;;;4979726;28;20053;-58
2022/04/06 11:54:20;;;;;;;1.35;0.82;;;13.90;99.90;;;;;;4978806;28;20050;-58
2022/04/06 11:56:49;;;;;;;4.57;0.80;;;13.80;99.90;;;;;;4979876;28;20054;-56
2022/04/06 11:59:18;;;;;;;5.32;0.77;;;13.70;99.90;;;;;;4976772;28;20050;-58
2022/04/06 12:01:51;;;;;;;7.90;1.10;;;13.70;99.90;;;;;;4974587;28;20058;-56
2022/04/06 12:04:19;;;;;;;5.03;1.10;;;13.80;99.90;;;;;;4988327;28;20073;-57
2022/04/06 12:06:46;;;;;;;5.68;1.20;;;13.80;99.90;;;;;;4975462;28;20062;-56
2022/04/06 12:09:13;;;;;;;3.42;1.10;;;13.80;99.90;;;;;;4972427;28;20082;-58
2022/04/06 12:11:40;;;;;;;3.15;0.82;;;13.80;99.90;;;;;;4972427;28;20093;-60
2022/04/06 12:14:11;;;;;;;4.88;1.10;;;13.90;99.90;;;;;;4986108;28;20137;-59
2022/04/06 12:16:38;;;;;;;7.97;1.95;;;13.80;99.90;;;;;;4983556;28;20066;-58
2022/04/06 12:19:11;;;;;;;3.50;0.60;;;13.80;99.90;;;;;;4995836;28;20369;-58
2022/04/06 12:21:42;;;;;;;5.60;1.77;;;13.80;99.90;;;;;;4972748;28;20082;-57
2022/04/06 12:24:11;;;;;;;3.80;1.00;;;13.60;99.90;;;;;;4972762;28;20125;-58
2022/04/06 12:26:57;;;;;;;2.33;1.00;;;13.50;99.90;;;;;;4981236;28;20070;-57
2022/04/06 12:29:24;;;;;;;2.65;0.80;;;13.40;99.90;;;;;;4978142;28;20085;-58
2022/04/06 12:31:52;;;;;;;12.18;1.80;;;13.30;99.90;;;;;;4963158;28;20053;-57
2022/04/06 12:34:36;;;;;;;6.95;1.08;;;13.30;99.90;;;;;;4982256;28;20121;-59
2022/04/06 12:39:52;;;;;;;1.70;0.63;;;13.10;99.90;;;;;;4974650;28;20038;-58
2022/04/06 12:42:19;;;;;;;5.68;0.77;;;12.90;99.90;;;;;;4974009;28;20100;-60
2022/04/06 12:45:00;;;;;;;2.20;0.68;;;12.80;99.90;;;;;;4979411;28;20566;-59
2022/04/06 12:47:27;;;;;;;2.25;0.55;;;12.70;99.90;;;;;;4976349;28;20065;-59
2022/04/06 12:50:19;;;;;;;1.75;0.60;;;12.80;99.90;;;;;;4975650;28;20133;-59
2022/04/06 12:53:08;;;;;;;2.72;0.80;;;12.90;99.90;;;;;;4973700;28;20047;-55
2022/04/06 12:55:35;;;;;;;4.43;0.75;;;13.10;99.90;;;;;;4979330;28;20097;-62
2022/04/06 12:58:19;;;;;;;3.65;1.02;;;13.20;99.90;;;;;;4976605;28;20439;-59
2022/04/06 13:00:56;;;;;;;2.67;0.80;;;13.30;99.90;;;;;;4982688;28;20054;-59
2022/04/06 13:03:25;;;;;;;1.88;0.43;;;13.30;99.90;;;;;;4964241;28;20072;-59
2022/04/06 13:05:52;;;;;;;1.85;0.95;;;13.20;99.90;;;;;;4967724;28;20500;-60
2022/04/06 13:08:22;;;;;;;3.63;0.70;;;13.40;99.90;;;;;;4960533;28;20748;-61
2022/04/06 13:10:49;;;;;;;1.73;0.90;;;13.50;99.90;;;;;;4969799;28;20050;-58